createdAt,value
2022-12-18T00:00:05.229Z,1019
2022-12-18T00:03:06.778Z,1019
2022-12-18T00:06:05.109Z,1019
2022-12-18T00:09:05.147Z,1019
2022-12-18T00:15:05.164Z,1019
2022-12-18T00:18:05.147Z,1019
2022-12-18T00:21:05.154Z,1019
2022-12-18T00:24:05.165Z,1019
2022-12-18T00:27:05.151Z,1019
2022-12-18T00:30:05.128Z,1019
2022-12-18T00:33:05.238Z,1019
2022-12-18T00:36:05.113Z,1018
2022-12-18T00:39:05.149Z,1018
2022-12-18T00:42:05.140Z,1018
2022-12-18T00:45:12.820Z,1018
2022-12-18T00:48:05.563Z,1018
2022-12-18T00:51:05.165Z,1018
2022-12-18T00:54:05.190Z,1018
2022-12-18T00:57:05.155Z,1018
2022-12-18T01:00:05.534Z,1018
2022-12-18T01:03:06.940Z,1018
2022-12-18T01:06:05.378Z,1018
2022-12-18T01:09:05.226Z,1018
2022-12-18T01:12:05.333Z,1018
2022-12-18T01:15:05.116Z,1019
2022-12-18T01:18:05.916Z,1019
2022-12-18T01:21:05.122Z,1019
2022-12-18T01:24:05.144Z,1019
2022-12-18T01:27:05.317Z,1019
2022-12-18T01:30:05.479Z,1019
2022-12-18T01:33:05.293Z,1019
2022-12-18T01:36:06.756Z,1019
2022-12-18T01:39:06.052Z,1019
2022-12-18T01:42:06.387Z,1019
2022-12-18T01:45:05.354Z,1019
2022-12-18T01:48:05.170Z,1019
2022-12-18T01:51:05.141Z,1019
2022-12-18T01:54:05.256Z,1019
2022-12-18T01:57:05.999Z,1019
2022-12-18T02:00:05.290Z,1019
2022-12-18T02:03:05.546Z,1019
2022-12-18T02:06:05.235Z,1019
2022-12-18T02:09:05.720Z,1019
2022-12-18T02:12:05.968Z,1019
2022-12-18T02:15:05.228Z,1019
2022-12-18T02:18:05.274Z,1019
2022-12-18T02:21:05.480Z,1019
2022-12-18T02:24:05.321Z,1019
2022-12-18T02:27:05.152Z,1019
2022-12-18T02:30:05.272Z,1019
2022-12-18T02:33:05.073Z,1019
2022-12-18T02:36:05.231Z,1019
2022-12-18T02:39:06.420Z,1019
2022-12-18T02:42:05.156Z,1019
2022-12-18T02:45:05.196Z,1019
2022-12-18T02:48:05.197Z,1019
2022-12-18T02:51:05.199Z,1019
2022-12-18T02:54:05.090Z,1019
2022-12-18T02:57:05.126Z,1019
2022-12-18T03:00:05.232Z,1019
2022-12-18T03:03:05.639Z,1019
2022-12-18T03:06:05.372Z,1019
2022-12-18T03:09:05.233Z,1019
2022-12-18T03:12:05.190Z,1019
2022-12-18T03:15:05.383Z,1019
2022-12-18T03:18:06.282Z,1019
2022-12-18T03:21:05.180Z,1019
2022-12-18T03:24:05.245Z,1019
2022-12-18T03:27:05.139Z,1019
2022-12-18T03:30:05.200Z,1019
2022-12-18T03:33:05.260Z,1019
2022-12-18T03:36:05.257Z,1019
2022-12-18T03:39:05.196Z,1019
2022-12-18T03:42:05.246Z,1019
2022-12-18T03:45:05.170Z,1019
2022-12-18T03:48:05.233Z,1019
2022-12-18T03:51:05.190Z,1019
2022-12-18T03:54:05.160Z,1019
2022-12-18T03:57:05.189Z,1019
2022-12-18T04:00:05.786Z,1019
2022-12-18T04:03:05.232Z,1019
2022-12-18T04:06:05.238Z,1019
2022-12-18T04:09:05.237Z,1019
2022-12-18T04:12:05.212Z,1019
2022-12-18T04:15:05.252Z,1019
2022-12-18T04:18:05.153Z,1019
2022-12-18T04:21:05.162Z,1019
2022-12-18T04:24:05.325Z,1018
2022-12-18T04:27:05.195Z,1018
2022-12-18T04:30:05.335Z,1018
2022-12-18T04:33:05.163Z,1019
2022-12-18T04:36:05.202Z,1019
2022-12-18T04:39:05.215Z,1019
2022-12-18T04:42:05.185Z,1019
2022-12-18T04:45:05.081Z,1019
2022-12-18T04:48:05.251Z,1019
2022-12-18T04:51:05.118Z,1019
2022-12-18T04:54:05.197Z,1019
2022-12-18T04:57:05.187Z,1019
2022-12-18T05:00:05.229Z,1019
2022-12-18T05:03:05.833Z,1019
2022-12-18T05:06:05.441Z,1019
2022-12-18T05:09:05.251Z,1019
2022-12-18T05:12:05.439Z,1019
2022-12-18T05:15:05.196Z,1019
2022-12-18T05:18:05.452Z,1019
2022-12-18T05:21:05.206Z,1019
2022-12-18T05:24:05.183Z,1019
2022-12-18T05:27:05.110Z,1019
2022-12-18T05:30:05.223Z,1019
2022-12-18T05:33:05.183Z,1019
2022-12-18T05:36:05.120Z,1019
2022-12-18T05:39:05.343Z,1019
2022-12-18T05:42:05.220Z,1019
2022-12-18T05:45:05.137Z,1019
2022-12-18T05:48:05.078Z,1019
2022-12-18T05:51:05.189Z,1019
2022-12-18T05:54:05.525Z,1019
2022-12-18T05:57:05.091Z,1019
2022-12-18T06:00:05.173Z,1019
2022-12-18T06:03:05.703Z,1019
2022-12-18T06:06:05.369Z,1019
2022-12-18T06:09:05.152Z,1019
2022-12-18T06:12:05.248Z,1019
2022-12-18T06:15:05.198Z,1019
2022-12-18T06:18:05.207Z,1019
2022-12-18T06:21:05.192Z,1019
2022-12-18T06:24:05.239Z,1019
2022-12-18T06:27:05.309Z,1019
2022-12-18T06:30:05.470Z,1019
2022-12-18T06:33:05.163Z,1019
2022-12-18T06:36:05.900Z,1019
2022-12-18T06:39:05.078Z,1019
2022-12-18T06:42:05.135Z,1019
2022-12-18T06:45:05.133Z,1019
2022-12-18T06:48:05.127Z,1019
2022-12-18T06:51:05.080Z,1019
2022-12-18T06:54:05.156Z,1019
2022-12-18T06:57:05.153Z,1020
2022-12-18T07:00:05.351Z,1020
2022-12-18T07:03:05.324Z,1020
2022-12-18T07:06:05.134Z,1020
2022-12-18T07:09:05.116Z,1020
2022-12-18T07:12:05.120Z,1020
2022-12-18T07:15:05.164Z,1020
2022-12-18T07:18:05.140Z,1019
2022-12-18T07:21:05.164Z,1019
2022-12-18T07:24:05.159Z,1019
2022-12-18T07:27:05.239Z,1019
2022-12-18T07:30:05.144Z,1019
2022-12-18T07:33:05.200Z,1019
2022-12-18T07:36:05.230Z,1020
2022-12-18T07:39:05.171Z,1020
2022-12-18T07:42:05.139Z,1020
2022-12-18T07:45:05.217Z,1020
2022-12-18T07:48:05.235Z,1020
2022-12-18T07:51:05.157Z,1020
2022-12-18T07:54:05.223Z,1020
2022-12-18T07:57:09.897Z,1020
2022-12-18T08:00:06.067Z,1020
2022-12-18T08:03:05.569Z,1020
2022-12-18T08:06:05.254Z,1020
2022-12-18T08:09:05.224Z,1020
2022-12-18T08:12:05.243Z,1020
2022-12-18T08:15:05.736Z,1020
2022-12-18T08:18:05.977Z,1020
2022-12-18T08:21:05.126Z,1020
2022-12-18T08:24:05.273Z,1020
2022-12-18T08:27:34.799Z,1020
2022-12-18T08:30:05.210Z,1020
2022-12-18T08:33:05.117Z,1020
2022-12-18T08:36:05.178Z,1020
2022-12-18T08:39:05.191Z,1020
2022-12-18T08:42:14.159Z,1020
2022-12-18T08:45:05.222Z,1020
2022-12-18T08:48:05.228Z,1020
2022-12-18T08:51:05.287Z,1020
2022-12-18T08:54:08.483Z,1020
2022-12-18T08:57:05.180Z,1020
2022-12-18T09:00:05.313Z,1019
2022-12-18T09:03:05.499Z,1019
2022-12-18T09:06:05.260Z,1019
2022-12-18T09:09:05.672Z,1019
2022-12-18T09:12:05.232Z,1019
2022-12-18T09:15:05.204Z,1019
2022-12-18T09:18:05.188Z,1019
2022-12-18T09:21:05.132Z,1019
2022-12-18T09:24:06.957Z,1019
2022-12-18T09:27:05.209Z,1019
2022-12-18T09:30:05.249Z,1019
2022-12-18T09:33:05.953Z,1019
2022-12-18T09:36:05.196Z,1019
2022-12-18T09:39:12.938Z,1019
2022-12-18T09:42:05.181Z,1019
2022-12-18T09:45:05.490Z,1019
2022-12-18T09:48:05.329Z,1019
2022-12-18T09:51:05.183Z,1019
2022-12-18T09:54:05.316Z,1019
2022-12-18T09:57:06.583Z,1019
2022-12-18T10:00:05.236Z,1019
2022-12-18T10:03:05.778Z,1019
2022-12-18T10:06:05.407Z,1019
2022-12-18T10:09:05.192Z,1019
2022-12-18T10:12:05.180Z,1019
2022-12-18T10:15:05.221Z,1019
2022-12-18T10:18:05.289Z,1019
2022-12-18T10:21:05.186Z,1019
2022-12-18T10:24:05.170Z,1019
2022-12-18T10:27:05.205Z,1019
2022-12-18T10:30:05.235Z,1019
2022-12-18T10:33:05.170Z,1019
2022-12-18T10:36:05.258Z,1019
2022-12-18T10:39:05.543Z,1019
2022-12-18T10:42:05.200Z,1019
2022-12-18T10:45:05.223Z,1019
2022-12-18T10:48:05.121Z,1019
2022-12-18T10:51:17.666Z,1019
2022-12-18T10:54:06.669Z,1019
2022-12-18T10:57:05.199Z,1019
2022-12-18T11:00:05.226Z,1019
2022-12-18T11:03:06.117Z,1019
2022-12-18T11:06:05.240Z,1019
2022-12-18T11:09:13.380Z,1019
2022-12-18T11:12:05.180Z,1019
2022-12-18T11:15:05.313Z,1019
2022-12-18T11:18:05.799Z,1019
2022-12-18T11:21:05.137Z,1019
2022-12-18T11:24:05.209Z,1019
2022-12-18T11:27:05.156Z,1018
2022-12-18T11:30:05.306Z,1018
2022-12-18T11:33:05.282Z,1019
2022-12-18T11:36:05.289Z,1019
2022-12-18T11:39:05.186Z,1019
2022-12-18T11:42:05.216Z,1019
2022-12-18T11:45:05.293Z,1018
2022-12-18T11:48:05.709Z,1018
2022-12-18T11:51:05.153Z,1018
2022-12-18T11:54:05.251Z,1018
2022-12-18T11:57:05.233Z,1018
2022-12-18T12:00:05.299Z,1018
2022-12-18T12:03:05.715Z,1018
2022-12-18T12:06:05.175Z,1018
2022-12-18T12:09:05.151Z,1018
2022-12-18T12:12:05.170Z,1018
2022-12-18T12:15:05.241Z,1018
2022-12-18T12:18:11.565Z,1018
2022-12-18T12:21:05.235Z,1018
2022-12-18T12:24:05.905Z,1018
2022-12-18T12:27:05.169Z,1018
2022-12-18T12:30:05.311Z,1018
2022-12-18T12:33:05.228Z,1018
2022-12-18T12:36:05.281Z,1018
2022-12-18T12:39:05.243Z,1018
2022-12-18T12:42:05.162Z,1018
2022-12-18T12:45:05.416Z,1018
2022-12-18T12:48:06.311Z,1018
2022-12-18T12:51:05.206Z,1018
2022-12-18T12:54:05.290Z,1018
2022-12-18T12:57:05.219Z,1018
2022-12-18T13:00:05.894Z,1018
2022-12-18T13:03:05.313Z,1017
2022-12-18T13:06:07.404Z,1017
2022-12-18T13:09:05.663Z,1017
2022-12-18T13:12:05.380Z,1017
2022-12-18T13:15:11.547Z,1017
2022-12-18T13:18:05.512Z,1018
2022-12-18T13:21:08.442Z,1018
2022-12-18T13:24:05.322Z,1018
2022-12-18T13:27:05.764Z,1018
2022-12-18T13:30:05.473Z,1018
2022-12-18T13:33:05.265Z,1018
2022-12-18T13:36:05.916Z,1018
2022-12-18T13:39:05.263Z,1017
2022-12-18T13:42:05.375Z,1017
2022-12-18T13:45:05.212Z,1017
2022-12-18T13:48:05.240Z,1017
2022-12-18T13:51:05.773Z,1017
2022-12-18T13:54:05.290Z,1017
2022-12-18T13:57:05.219Z,1017
2022-12-18T14:00:05.316Z,1017
2022-12-18T14:03:06.851Z,1017
2022-12-18T14:06:05.663Z,1017
2022-12-18T14:09:06.786Z,1017
2022-12-18T14:12:05.587Z,1018
2022-12-18T14:15:05.650Z,1018
2022-12-18T14:18:05.200Z,1018
2022-12-18T14:21:05.259Z,1018
2022-12-18T14:24:05.241Z,1018
2022-12-18T14:27:05.201Z,1018
2022-12-18T14:30:05.302Z,1018
2022-12-18T14:33:05.175Z,1018
2022-12-18T14:36:05.195Z,1018
2022-12-18T14:39:05.153Z,1018
2022-12-18T14:42:05.334Z,1018
2022-12-18T14:45:19.161Z,1018
2022-12-18T14:48:05.488Z,1018
2022-12-18T14:51:05.196Z,1017
2022-12-18T14:54:05.253Z,1017
2022-12-18T14:57:05.371Z,1017
2022-12-18T15:00:05.422Z,1017
2022-12-18T15:03:05.701Z,1017
2022-12-18T15:06:06.750Z,1017
2022-12-18T15:09:05.188Z,1017
2022-12-18T15:12:05.230Z,1017
2022-12-18T15:15:05.234Z,1017
2022-12-18T15:18:05.130Z,1016
2022-12-18T15:21:05.175Z,1016
2022-12-18T15:24:05.218Z,1016
2022-12-18T15:27:05.217Z,1016
2022-12-18T15:30:05.337Z,1016
2022-12-18T15:33:05.171Z,1016
2022-12-18T15:36:05.207Z,1016
2022-12-18T15:39:11.292Z,1016
2022-12-18T15:42:05.120Z,1016
2022-12-18T15:45:05.109Z,1016
2022-12-18T15:48:05.526Z,1016
2022-12-18T15:51:05.144Z,1016
2022-12-18T15:54:05.110Z,1016
2022-12-18T15:57:05.101Z,1017
2022-12-18T16:00:05.486Z,1017
2022-12-18T16:03:06.029Z,1017
2022-12-18T16:06:06.576Z,1017
2022-12-18T16:09:05.147Z,1017
2022-12-18T16:12:05.156Z,1017
2022-12-18T16:15:05.180Z,1017
2022-12-18T16:18:05.182Z,1016
2022-12-18T16:21:05.223Z,1016
2022-12-18T16:24:05.257Z,1016
2022-12-18T16:27:05.188Z,1016
2022-12-18T16:30:05.411Z,1016
2022-12-18T16:33:05.212Z,1016
2022-12-18T16:36:05.163Z,1016
2022-12-18T16:39:05.157Z,1016
2022-12-18T16:42:08.216Z,1016
2022-12-18T16:45:05.177Z,1016
2022-12-18T16:48:05.180Z,1016
2022-12-18T16:51:05.360Z,1016
2022-12-18T16:54:19.220Z,1016
2022-12-18T16:57:05.103Z,1015
2022-12-18T17:00:10.565Z,1015
2022-12-18T17:03:06.127Z,1015
2022-12-18T17:06:05.156Z,1015
2022-12-18T17:09:05.302Z,1015
2022-12-18T17:12:09.172Z,1015
2022-12-18T17:15:05.303Z,1015
2022-12-18T17:18:05.179Z,1015
2022-12-18T17:21:05.135Z,1015
2022-12-18T17:24:05.181Z,1015
2022-12-18T17:27:05.162Z,1015
2022-12-18T17:30:05.234Z,1015
2022-12-18T17:33:05.136Z,1015
2022-12-18T17:36:05.144Z,1015
2022-12-18T17:39:05.200Z,1015
2022-12-18T17:42:05.259Z,1015
2022-12-18T17:45:05.206Z,1015
2022-12-18T17:48:05.147Z,1016
2022-12-18T17:51:05.136Z,1016
2022-12-18T17:54:05.336Z,1016
2022-12-18T17:57:05.162Z,1016
2022-12-18T18:00:05.288Z,1016
2022-12-18T18:03:05.954Z,1016
2022-12-18T18:06:05.092Z,1016
2022-12-18T18:09:05.394Z,1016
2022-12-18T18:12:05.764Z,1016
2022-12-18T18:15:05.526Z,1016
2022-12-18T18:18:05.153Z,1015
2022-12-18T18:21:05.949Z,1015
2022-12-18T18:24:05.169Z,1015
2022-12-18T18:27:05.218Z,1015
2022-12-18T18:30:05.633Z,1015
2022-12-18T18:33:11.957Z,1015
2022-12-18T18:36:05.151Z,1015
2022-12-18T18:39:05.104Z,1015
2022-12-18T18:42:05.095Z,1015
2022-12-18T18:45:05.127Z,1015
2022-12-18T18:48:05.114Z,1015
2022-12-18T18:51:05.162Z,1015
2022-12-18T18:54:05.340Z,1015
2022-12-18T18:57:32.708Z,1015
2022-12-18T19:00:05.254Z,1015
2022-12-18T19:03:06.222Z,1015
2022-12-18T19:06:05.208Z,1015
2022-12-18T19:09:05.428Z,1015
2022-12-18T19:12:05.249Z,1014
2022-12-18T19:15:05.585Z,1014
2022-12-18T19:18:05.435Z,1014
2022-12-18T19:21:05.110Z,1014
2022-12-18T19:24:05.182Z,1014
2022-12-18T19:27:05.164Z,1014
2022-12-18T19:30:05.264Z,1014
2022-12-18T19:33:44.663Z,1014
2022-12-18T19:36:07.780Z,1014
2022-12-18T19:39:05.602Z,1015
2022-12-18T19:42:05.176Z,1014
2022-12-18T19:45:05.174Z,1014
2022-12-18T19:48:09.153Z,1014
2022-12-18T19:51:05.320Z,1014
2022-12-18T19:54:06.665Z,1014
2022-12-18T19:57:05.077Z,1014
2022-12-18T20:00:05.185Z,1014
2022-12-18T20:03:32.721Z,1014
2022-12-18T20:06:05.146Z,1014
2022-12-18T20:09:05.990Z,1014
2022-12-18T20:12:05.452Z,1014
2022-12-18T20:15:05.161Z,1014
2022-12-18T20:18:05.530Z,1014
2022-12-18T20:21:13.661Z,1014
2022-12-18T20:24:05.166Z,1014
2022-12-18T20:27:06.888Z,1014
2022-12-18T20:30:05.173Z,1014
2022-12-18T20:33:05.320Z,1014
2022-12-18T20:36:05.275Z,1014
2022-12-18T20:39:12.173Z,1014
2022-12-18T20:42:05.145Z,1014
2022-12-18T20:45:05.231Z,1014
2022-12-18T20:48:05.104Z,1014
2022-12-18T20:51:08.388Z,1014
2022-12-18T20:54:07.980Z,1014
2022-12-18T20:57:05.289Z,1013
2022-12-18T21:00:05.270Z,1013
2022-12-18T21:03:07.489Z,1013
2022-12-18T21:06:05.214Z,1013
2022-12-18T21:09:05.164Z,1013
2022-12-18T21:12:05.270Z,1013
2022-12-18T21:15:05.197Z,1013
2022-12-18T21:18:05.669Z,1013
2022-12-18T21:21:05.426Z,1013
2022-12-18T21:24:05.182Z,1013
2022-12-18T21:27:05.247Z,1013
2022-12-18T21:30:05.565Z,1013
2022-12-18T21:33:05.156Z,1013
2022-12-18T21:36:05.322Z,1013
2022-12-18T21:39:05.305Z,1013
2022-12-18T21:42:05.369Z,1013
2022-12-18T21:45:05.370Z,1013
2022-12-18T21:48:05.147Z,1013
2022-12-18T21:51:07.105Z,1013
2022-12-18T21:54:05.199Z,1013
2022-12-18T21:57:05.090Z,1013
2022-12-18T22:00:05.193Z,1013
2022-12-18T22:03:23.975Z,1013
2022-12-18T22:06:14.251Z,1013
2022-12-18T22:09:05.130Z,1013
2022-12-18T22:12:05.126Z,1013
2022-12-18T22:15:05.178Z,1013
2022-12-18T22:18:05.293Z,1013
2022-12-18T22:21:05.132Z,1013
2022-12-18T22:24:05.266Z,1013
2022-12-18T22:27:07.441Z,1013
2022-12-18T22:30:05.163Z,1013
2022-12-18T22:33:05.075Z,1013
2022-12-18T22:36:05.124Z,1013
2022-12-18T22:39:05.097Z,1013
2022-12-18T22:42:05.664Z,1013
2022-12-18T22:45:05.887Z,1012
2022-12-18T22:48:05.163Z,1012
2022-12-18T22:51:05.123Z,1012
2022-12-18T22:54:07.268Z,1012
2022-12-18T22:57:05.413Z,1012
2022-12-18T23:00:05.704Z,1012
2022-12-18T23:03:09.581Z,1012
2022-12-18T23:06:05.151Z,1012
2022-12-18T23:09:05.232Z,1012
2022-12-18T23:12:05.182Z,1012
2022-12-18T23:15:05.158Z,1012
2022-12-18T23:18:05.180Z,1012
2022-12-18T23:21:06.507Z,1012
2022-12-18T23:24:05.317Z,1012
2022-12-18T23:27:11.642Z,1012
2022-12-18T23:30:05.192Z,1012
2022-12-18T23:33:05.400Z,1012
2022-12-18T23:36:05.169Z,1012
2022-12-18T23:39:05.214Z,1011
2022-12-18T23:42:05.404Z,1011
2022-12-18T23:45:20.300Z,1011
2022-12-18T23:48:05.152Z,1011
2022-12-18T23:51:05.118Z,1011
2022-12-18T23:54:05.064Z,1011
2022-12-18T23:57:05.143Z,1011
